Main page
METAR-TAF:

METAR-TAF

Airports :

Orange, France

Orange-Caritat Air Base

latitude: 44-08N, longitude: 004-50E, elevation: 60 m

Current weather observation

The report was made 41 minutes ago, at 16:00 UTC
Wind 12 kt from the South, varying between Southeast and Southwest
Temperature 30°C
Humidity 46%
Pressure 1013 hPa
Visibility 10 km or more
no clouds below 1500 m and no cumulonimbus

METAR: LFMO 221600Z AUTO 18012KT 140V220 CAVOK 30/17 Q1013 NOSIG

Time: 18:41 (16:41 UTC)

Forecast

The report was made 2 hours and 41 minutes ago, at 14:00 UTC
Forecast valid from 22 at 15 UTC to 23 at 15 UTC
Wind 12 kt from the South/Southwest
Visibility 10 km or more
no clouds below 1500 m and no cumulonimbus
Temporary
from 22 at 22 UTC to 23 at 06 UTC
Wind 2 kt from variable directions

TAF: LFMO 221400Z 2215/2315 20012KT CAVOK TEMPO 2222/2306 VRB02KT

Weather observations and forecasts of more than 4000 airports (METAR and TAF reports).

The available stations are represented by yellow and red dots on the map.

Hover mouse over dot to see the name of the station.

Then click to see weather observations and forecasts.

To change the map : click on the green buttons with a black cross to zoom in, on the green button with a dash to zoom out, or on the green arrows for adjacent maps.


METAR-TAF: